Time;durP1;ratioP1;P1;durP2;ratioP2;P2;SDS_P1;SDS_P2;PMS_P1;PMS_P2;Temp;Humidity;BMP_temperature;BMP_pressure;BME280_temperature;BME280_humidity;BME280_pressure;Samples;Min_cycle;Max_cycle;Signal;HPM_P1;HPM_P2
2024/04/11 00:02:19;;;;;;;;;;;10.50;99.90;;;;;;6669336;89;20182;-79
2024/04/11 00:12:20;;;;;;;;;;;10.50;99.90;;;;;;6665351;89;20554;-79
2024/04/11 00:22:21;;;;;;;;;;;10.20;99.90;;;;;;6679711;88;20078;-80
2024/04/11 00:32:24;;;;;;;;;;;9.40;99.90;;;;;;6670793;88;20547;-79
2024/04/11 00:42:25;;;;;;;;;;;8.70;99.90;;;;;;6667276;89;20054;-79
2024/04/11 00:52:25;;;;;;;;;;;8.60;99.90;;;;;;6667291;88;20205;-79
2024/04/11 01:02:26;;;;;;;;;;;8.40;99.90;;;;;;6672587;88;20065;-79
2024/04/11 01:12:26;;;;;;;;;;;8.40;99.90;;;;;;6678808;88;20586;-78
2024/04/11 01:22:26;;;;;;;;;;;8.30;99.90;;;;;;6668356;88;20183;-79
2024/04/11 01:32:27;;;;;;;;;;;8.20;99.90;;;;;;6667079;88;20069;-79
2024/04/11 01:42:28;;;;;;;;;;;8.10;99.90;;;;;;6662514;89;20084;-78
2024/04/11 01:52:29;;;;;;;;;;;8.00;99.90;;;;;;6669445;88;20060;-78
2024/04/11 02:02:29;;;;;;;;;;;7.80;99.90;;;;;;6664165;88;20504;-79
2024/04/11 02:12:30;;;;;;;;;;;7.60;99.90;;;;;;6668416;89;20149;-79
2024/04/11 02:22:30;;;;;;;;;;;7.50;99.90;;;;;;6677883;88;20620;-78
2024/04/11 02:42:38;;;;;;;;;;;7.30;99.90;;;;;;6650028;88;20098;-80
2024/04/11 02:52:40;;;;;;;;;;;7.20;99.90;;;;;;6651971;89;20093;-80
2024/04/11 03:02:42;;;;;;;;;;;7.20;99.90;;;;;;6623175;89;20105;-79
2024/04/11 03:12:43;;;;;;;;;;;7.10;99.90;;;;;;6633362;89;20024;-82
2024/04/11 03:22:44;;;;;;;;;;;7.00;99.90;;;;;;6639372;88;20259;-80
2024/04/11 03:32:44;;;;;;;;;;;7.20;99.90;;;;;;6631028;89;20168;-80
2024/04/11 03:42:46;;;;;;;;;;;7.60;99.90;;;;;;6627723;89;20261;-79
2024/04/11 03:52:46;;;;;;;;;;;7.60;99.90;;;;;;6627585;89;20046;-79
2024/04/11 04:02:47;;;;;;;;;;;7.50;99.90;;;;;;6625770;89;20137;-79
2024/04/11 04:12:48;;;;;;;;;;;7.50;99.90;;;;;;6625692;89;22011;-78
2024/04/11 04:22:49;;;;;;;;;;;7.40;99.90;;;;;;6641822;89;20459;-80
2024/04/11 04:32:49;;;;;;;;;;;7.40;99.90;;;;;;6642038;89;20089;-79
2024/04/11 04:42:55;;;;;;;;;;;7.40;99.90;;;;;;6641949;89;20095;-79
2024/04/11 04:52:59;;;;;;;;;;;7.40;99.90;;;;;;6626003;89;20070;-79
2024/04/11 05:03:03;;;;;;;;;;;7.50;99.90;;;;;;6624923;89;20070;-78
2024/04/11 05:13:09;;;;;;;;;;;7.60;99.90;;;;;;6625178;89;20110;-81
2024/04/11 05:23:09;;;;;;;;;;;7.70;99.90;;;;;;6624772;89;20062;-80
2024/04/11 05:33:10;;;;;;;;;;;7.80;99.90;;;;;;6624616;89;20144;-79
2024/04/11 05:43:10;;;;;;;;;;;8.00;99.90;;;;;;6624128;89;20051;-80
2024/04/11 05:53:14;;;;;;;;;;;8.30;99.90;;;;;;6626637;89;20080;-78
2024/04/11 06:03:15;;;;;;;;;;;8.60;99.90;;;;;;6636467;89;20131;-81
2024/04/11 06:13:19;;;;;;;;;;;9.00;99.90;;;;;;6641968;89;20052;-79
2024/04/11 06:23:19;;;;;;;;;;;9.20;99.90;;;;;;6635362;89;20476;-78
2024/04/11 06:33:21;;;;;;;;;;;9.70;99.90;;;;;;6635001;89;20086;-77
2024/04/11 06:43:22;;;;;;;;;;;10.00;99.90;;;;;;6634008;89;20090;-78
2024/04/11 06:53:23;;;;;;;;;;;10.40;99.90;;;;;;6633733;89;20540;-79
2024/04/11 07:03:26;;;;;;;;;;;10.60;99.90;;;;;;6637895;89;20064;-79
2024/04/11 07:13:28;;;;;;;;;;;10.80;99.90;;;;;;6639036;89;20104;-79
2024/04/11 07:23:28;;;;;;;;;;;10.90;99.90;;;;;;6644045;89;20180;-78
2024/04/11 07:33:30;;;;;;;;;;;11.00;99.90;;;;;;6624600;89;20027;-82
2024/04/11 07:43:31;;;;;;;;;;;11.00;99.90;;;;;;6634726;89;20500;-78
2024/04/11 07:53:31;;;;;;;;;;;11.10;99.90;;;;;;6614865;89;20500;-79
2024/04/11 08:03:32;;;;;;;;;;;11.30;99.90;;;;;;6619690;89;20172;-79
2024/04/11 08:13:33;;;;;;;;;;;11.50;99.90;;;;;;6621530;89;20125;-78
2024/04/11 08:23:34;;;;;;;;;;;11.60;99.90;;;;;;6618714;89;20082;-79
2024/04/11 08:33:36;;;;;;;;;;;11.90;99.90;;;;;;6620838;88;20110;-79
2024/04/11 08:43:36;;;;;;;;;;;12.20;99.90;;;;;;6617286;89;20182;-78
2024/04/11 08:53:39;;;;;;;;;;;12.30;99.90;;;;;;6617244;89;20062;-79
2024/04/11 09:03:40;;;;;;;;;;;12.50;99.90;;;;;;6617171;89;20071;-80
2024/04/11 09:13:41;;;;;;;;;;;12.70;99.90;;;;;;6620099;89;20116;-78
2024/04/11 09:23:46;;;;;;;;;;;12.80;99.90;;;;;;6619200;89;20074;-78
2024/04/11 09:33:53;;;;;;;;;;;13.00;99.90;;;;;;6618511;89;20202;-78
2024/04/11 09:43:55;;;;;;;;;;;13.20;99.90;;;;;;6617579;89;20059;-79
2024/04/11 09:53:57;;;;;;;;;;;13.40;99.90;;;;;;6617362;89;20535;-78
2024/04/11 10:03:58;;;;;;;;;;;13.30;99.90;;;;;;6616124;88;20062;-78
2024/04/11 10:14:02;;;;;;;;;;;13.20;99.90;;;;;;6616656;89;20084;-80
2024/04/11 10:24:16;;;;;;;;;;;13.50;99.90;;;;;;6616066;89;20194;-78
2024/04/11 10:34:25;;;;;;;;;;;13.90;99.90;;;;;;6616807;89;20075;-80
2024/04/11 10:44:26;;;;;;;;;;;14.60;99.90;;;;;;6620788;89;20546;-78
2024/04/11 10:54:27;;;;;;;;;;;15.00;99.90;;;;;;6621321;89;20054;-78
2024/04/11 11:04:30;;;;;;;;;;;15.10;99.90;;;;;;6615274;89;20066;-78
2024/04/11 11:14:31;;;;;;;;;;;15.10;99.90;;;;;;6620112;89;20518;-78
2024/04/11 11:24:34;;;;;;;;;;;15.30;99.90;;;;;;6619620;89;20601;-78
2024/04/11 11:34:42;;;;;;;;;;;15.30;99.90;;;;;;6621144;89;20483;-78
2024/04/11 11:54:58;;;;;;;;;;;15.80;99.90;;;;;;6618420;89;20384;-78
2024/04/11 12:05:02;;;;;;;;;;;16.00;99.90;;;;;;6640382;89;20066;-78
2024/04/11 12:15:04;;;;;;;;;;;16.40;99.90;;;;;;6620258;89;20062;-77
2024/04/11 12:25:10;;;;;;;;;;;16.60;99.90;;;;;;6618478;89;20112;-78
2024/04/11 12:35:11;;;;;;;;;;;17.00;99.90;;;;;;6621250;89;20066;-78
2024/04/11 12:45:18;;;;;;;;;;;17.40;99.90;;;;;;6618354;89;20066;-78
2024/04/11 12:55:24;;;;;;;;;;;17.50;99.90;;;;;;6618751;89;20054;-79
2024/04/11 13:05:31;;;;;;;;;;;17.80;99.90;;;;;;6637157;88;20101;-79
2024/04/11 13:15:43;;;;;;;;;;;17.90;99.90;;;;;;6641914;88;20213;-80
2024/04/11 13:25:45;;;;;;;;;;;17.90;99.90;;;;;;6634774;88;20173;-79
2024/04/11 13:35:49;;;;;;;;;;;18.20;99.90;;;;;;6640301;88;20167;-79
2024/04/11 13:45:56;;;;;;;;;;;18.40;99.90;;;;;;6636002;88;20259;-79
2024/04/11 13:55:57;;;;;;;;;;;18.60;99.90;;;;;;6650511;88;20083;-80
2024/04/11 14:06:06;;;;;;;;;;;19.00;99.90;;;;;;6635688;88;20057;-79
2024/04/11 14:16:15;;;;;;;;;;;19.50;99.90;;;;;;6634180;88;20072;-80
2024/04/11 14:26:24;;;;;;;;;;;19.40;99.90;;;;;;6635926;88;20126;-80
2024/04/11 14:47:06;;;;;;;;;;;19.10;99.90;;;;;;6655030;88;20066;-79
2024/04/11 14:57:11;;;;;;;;;;;20.10;99.90;;;;;;6654335;88;20159;-77
2024/04/11 15:07:13;;;;;;;;;;;20.60;99.90;;;;;;6658078;88;20171;-81
2024/04/11 15:17:20;;;;;;;;;;;20.80;99.90;;;;;;6653041;88;20093;-79
2024/04/11 15:27:20;;;;;;;;;;;20.80;99.90;;;;;;6690750;88;20065;-79
2024/04/11 15:37:27;;;;;;;;;;;20.70;99.90;;;;;;6666493;89;20050;-79
2024/04/11 15:47:32;;;;;;;;;;;21.20;99.90;;;;;;6667990;89;20633;-77
2024/04/11 15:57:35;;;;;;;;;;;22.00;99.90;;;;;;6638487;89;20055;-77
2024/04/11 16:07:36;;;;;;;;;;;21.40;99.90;;;;;;6646024;89;20058;-78
2024/04/11 16:17:37;;;;;;;;;;;21.00;99.90;;;;;;6632053;89;20095;-79
2024/04/11 16:27:37;;;;;;;;;;;20.60;99.90;;;;;;6634655;89;20716;-77
2024/04/11 16:37:39;;;;;;;;;;;21.00;99.90;;;;;;6633201;89;20058;-78
2024/04/11 16:47:46;;;;;;;;;;;20.80;99.90;;;;;;6637189;89;20132;-77
2024/04/11 16:57:46;;;;;;;;;;;20.30;99.90;;;;;;6642237;89;20066;-78
2024/04/11 17:07:50;;;;;;;;;;;20.20;99.90;;;;;;6639654;89;20062;-78
2024/04/11 17:28:18;;;;;;;;;;;19.40;99.90;;;;;;6629890;89;20080;-78
2024/04/11 17:38:33;;;;;;;;;;;19.20;99.90;;;;;;6646587;89;20100;-77
2024/04/11 17:48:43;;;;;;;;;;;19.00;99.90;;;;;;6631845;89;20053;-77
2024/04/11 17:58:45;;;;;;;;;;;18.60;99.90;;;;;;6643426;88;20083;-79
2024/04/11 18:08:47;;;;;;;;;;;18.30;99.90;;;;;;6648279;89;20053;-80
2024/04/11 18:18:48;;;;;;;;;;;18.10;99.90;;;;;;6651932;88;20056;-79
2024/04/11 18:28:50;;;;;;;;;;;18.00;99.90;;;;;;6649018;89;20087;-79
2024/04/11 18:38:54;;;;;;;;;;;17.80;99.90;;;;;;6650515;89;20508;-80
2024/04/11 18:49:00;;;;;;;;;;;17.50;99.90;;;;;;6651929;89;20084;-79
2024/04/11 18:59:06;;;;;;;;;;;17.30;99.90;;;;;;6649337;89;20473;-79
2024/04/11 19:09:11;;;;;;;;;;;17.10;99.90;;;;;;6649358;89;20194;-78
2024/04/11 19:19:14;;;;;;;;;;;16.90;99.90;;;;;;6649244;89;20145;-81
2024/04/11 19:29:22;;;;;;;;;;;16.70;99.90;;;;;;6633771;89;20579;-81
2024/04/11 19:39:24;;;;;;;;;;;16.60;99.90;;;;;;6736246;88;20489;-79
2024/04/11 19:49:25;;;;;;;;;;;16.60;99.90;;;;;;6734853;88;20166;-78
2024/04/11 19:59:31;;;;;;;;;;;16.50;99.90;;;;;;6738670;88;20061;-80
2024/04/11 20:09:34;;;;;;;;;;;16.40;99.90;;;;;;6635537;89;20063;-79
2024/04/11 20:19:39;;;;;;;;;;;16.30;99.90;;;;;;6640516;89;20172;-82
2024/04/11 20:29:42;;;;;;;;;;;16.10;99.90;;;;;;6631871;89;20581;-80
2024/04/11 20:39:43;;;;;;;;;;;16.10;99.90;;;;;;6630730;89;20510;-81
2024/04/11 21:41:44;;;;;;;;;;;15.60;99.90;;;;;;6701374;88;20109;-81
2024/04/11 21:51:47;;;;;;;;;;;15.50;99.90;;;;;;6652541;89;20160;-81
2024/04/11 22:01:54;;;;;;;;;;;15.40;99.90;;;;;;6707020;88;20068;-81
2024/04/11 22:12:00;;;;;;;;;;;15.40;99.90;;;;;;6641150;89;20058;-83
2024/04/11 22:22:14;;;;;;;;;;;15.30;99.90;;;;;;6664485;88;20205;-82
2024/04/11 22:32:16;;;;;;;;;;;15.00;99.90;;;;;;6650263;88;20145;-82
2024/04/11 22:42:19;;;;;;;;;;;15.10;99.90;;;;;;6669537;88;20034;-80
2024/04/11 22:52:31;;;;;;;;;;;15.10;99.90;;;;;;6658082;88;20088;-81
2024/04/11 23:02:32;;;;;;;;;;;15.00;99.90;;;;;;6665671;89;20116;-81
2024/04/11 23:12:38;;;;;;;;;;;14.90;99.90;;;;;;6673780;89;20096;-82
2024/04/11 23:22:44;;;;;;;;;;;14.90;99.90;;;;;;6644704;89;20074;-82
2024/04/11 23:32:45;;;;;;;;;;;14.90;99.90;;;;;;6675148;88;20068;-82
2024/04/11 23:42:51;;;;;;;;;;;14.90;99.90;;;;;;6673485;88;20058;-82
2024/04/11 23:52:56;;;;;;;;;;;14.80;99.90;;;;;;6665184;89;20087;-83
